sensor_id;sensor_type;location;lat;lon;timestamp;P1;durP1;ratioP1;P2;durP2;ratioP2
39218;SDS011;24934;52.752;6.964;2022-09-12T00:01:03;10.98;;;10.20;;
39218;SDS011;24934;52.752;6.964;2022-09-12T00:03:34;10.85;;;10.05;;
39218;SDS011;24934;52.752;6.964;2022-09-12T00:06:00;11.43;;;10.63;;
39218;SDS011;24934;52.752;6.964;2022-09-12T00:08:31;11.77;;;10.88;;
39218;SDS011;24934;52.752;6.964;2022-09-12T00:10:56;13.40;;;12.43;;
39218;SDS011;24934;52.752;6.964;2022-09-12T00:13:22;12.23;;;11.43;;
39218;SDS011;24934;52.752;6.964;2022-09-12T00:15:47;11.80;;;11.02;;
39218;SDS011;24934;52.752;6.964;2022-09-12T00:18:16;11.82;;;11.02;;
39218;SDS011;24934;52.752;6.964;2022-09-12T00:20:45;13.57;;;12.02;;
39218;SDS011;24934;52.752;6.964;2022-09-12T00:23:11;12.70;;;11.68;;
39218;SDS011;24934;52.752;6.964;2022-09-12T00:25:45;12.30;;;11.35;;
39218;SDS011;24934;52.752;6.964;2022-09-12T00:28:12;11.75;;;10.95;;
39218;SDS011;24934;52.752;6.964;2022-09-12T00:30:42;11.20;;;10.30;;
39218;SDS011;24934;52.752;6.964;2022-09-12T00:33:10;11.43;;;10.63;;
39218;SDS011;24934;52.752;6.964;2022-09-12T00:35:46;12.02;;;11.02;;
39218;SDS011;24934;52.752;6.964;2022-09-12T00:38:14;12.10;;;11.20;;
39218;SDS011;24934;52.752;6.964;2022-09-12T00:40:40;12.43;;;11.52;;
39218;SDS011;24934;52.752;6.964;2022-09-12T00:43:14;12.60;;;11.68;;
39218;SDS011;24934;52.752;6.964;2022-09-12T00:46:00;11.30;;;10.50;;
39218;SDS011;24934;52.752;6.964;2022-09-12T00:48:45;11.45;;;10.65;;
39218;SDS011;24934;52.752;6.964;2022-09-12T00:51:24;12.35;;;11.50;;
39218;SDS011;24934;52.752;6.964;2022-09-12T00:53:51;12.05;;;10.95;;
39218;SDS011;24934;52.752;6.964;2022-09-12T00:56:19;11.90;;;11.02;;
39218;SDS011;24934;52.752;6.964;2022-09-12T00:58:51;12.43;;;11.52;;
39218;SDS011;24934;52.752;6.964;2022-09-12T01:01:29;13.98;;;12.98;;
39218;SDS011;24934;52.752;6.964;2022-09-12T01:03:57;16.38;;;15.15;;
39218;SDS011;24934;52.752;6.964;2022-09-12T01:06:26;14.70;;;13.70;;
39218;SDS011;24934;52.752;6.964;2022-09-12T01:08:56;14.10;;;12.90;;
39218;SDS011;24934;52.752;6.964;2022-09-12T01:11:23;13.45;;;12.43;;
39218;SDS011;24934;52.752;6.964;2022-09-12T01:13:52;13.90;;;12.75;;
39218;SDS011;24934;52.752;6.964;2022-09-12T01:16:19;14.18;;;13.07;;
39218;SDS011;24934;52.752;6.964;2022-09-12T01:19:04;14.88;;;12.68;;
39218;SDS011;24934;52.752;6.964;2022-09-12T01:30:23;13.32;;;12.13;;
39218;SDS011;24934;52.752;6.964;2022-09-12T01:46:29;12.73;;;11.73;;
39218;SDS011;24934;52.752;6.964;2022-09-12T01:52:52;15.23;;;13.90;;
39218;SDS011;24934;52.752;6.964;2022-09-12T01:57:53;13.18;;;11.98;;
39218;SDS011;24934;52.752;6.964;2022-09-12T02:00:24;14.05;;;12.95;;
39218;SDS011;24934;52.752;6.964;2022-09-12T02:08:02;13.70;;;12.68;;
39218;SDS011;24934;52.752;6.964;2022-09-12T02:10:35;13.80;;;12.73;;
39218;SDS011;24934;52.752;6.964;2022-09-12T02:13:10;12.63;;;11.73;;
39218;SDS011;24934;52.752;6.964;2022-09-12T02:15:42;13.00;;;12.05;;
39218;SDS011;24934;52.752;6.964;2022-09-12T02:18:13;14.00;;;12.93;;
39218;SDS011;24934;52.752;6.964;2022-09-12T02:20:42;12.93;;;11.95;;
39218;SDS011;24934;52.752;6.964;2022-09-12T02:23:21;13.60;;;12.55;;
39218;SDS011;24934;52.752;6.964;2022-09-12T02:25:51;13.32;;;12.23;;
39218;SDS011;24934;52.752;6.964;2022-09-12T02:28:31;15.55;;;14.13;;
39218;SDS011;24934;52.752;6.964;2022-09-12T02:33:47;14.63;;;13.55;;
39218;SDS011;24934;52.752;6.964;2022-09-12T02:39:06;15.35;;;13.95;;
39218;SDS011;24934;52.752;6.964;2022-09-12T02:41:32;14.90;;;13.75;;
39218;SDS011;24934;52.752;6.964;2022-09-12T02:43:58;15.45;;;14.15;;
39218;SDS011;24934;52.752;6.964;2022-09-12T02:46:37;14.05;;;12.90;;
39218;SDS011;24934;52.752;6.964;2022-09-12T02:49:09;14.88;;;13.70;;
39218;SDS011;24934;52.752;6.964;2022-09-12T02:51:35;14.80;;;13.65;;
39218;SDS011;24934;52.752;6.964;2022-09-12T02:54:01;18.30;;;16.80;;
39218;SDS011;24934;52.752;6.964;2022-09-12T02:56:30;15.25;;;14.13;;
39218;SDS011;24934;52.752;6.964;2022-09-12T02:58:58;16.98;;;15.27;;
39218;SDS011;24934;52.752;6.964;2022-09-12T03:01:38;15.65;;;14.32;;
39218;SDS011;24934;52.752;6.964;2022-09-12T03:12:45;14.23;;;13.07;;
39218;SDS011;24934;52.752;6.964;2022-09-12T03:21:20;13.57;;;12.55;;
39218;SDS011;24934;52.752;6.964;2022-09-12T03:29:17;15.30;;;13.85;;
39218;SDS011;24934;52.752;6.964;2022-09-12T03:31:48;14.32;;;13.02;;
39218;SDS011;24934;52.752;6.964;2022-09-12T03:34:24;13.80;;;12.82;;
39218;SDS011;24934;52.752;6.964;2022-09-12T03:36:51;15.57;;;14.18;;
39218;SDS011;24934;52.752;6.964;2022-09-12T03:39:19;14.90;;;13.80;;
39218;SDS011;24934;52.752;6.964;2022-09-12T03:41:48;14.60;;;13.50;;
39218;SDS011;24934;52.752;6.964;2022-09-12T03:44:14;14.93;;;13.73;;
39218;SDS011;24934;52.752;6.964;2022-09-12T03:46:41;14.50;;;13.40;;
39218;SDS011;24934;52.752;6.964;2022-09-12T03:49:06;16.08;;;14.75;;
39218;SDS011;24934;52.752;6.964;2022-09-12T03:51:32;18.10;;;16.40;;
39218;SDS011;24934;52.752;6.964;2022-09-12T03:53:57;15.02;;;13.75;;
39218;SDS011;24934;52.752;6.964;2022-09-12T03:56:23;14.90;;;13.85;;
39218;SDS011;24934;52.752;6.964;2022-09-12T03:58:49;16.67;;;15.25;;
39218;SDS011;24934;52.752;6.964;2022-09-12T04:01:16;13.88;;;12.88;;
39218;SDS011;24934;52.752;6.964;2022-09-12T04:03:43;13.82;;;12.73;;
39218;SDS011;24934;52.752;6.964;2022-09-12T04:06:11;13.65;;;12.45;;
39218;SDS011;24934;52.752;6.964;2022-09-12T04:08:39;13.65;;;12.55;;
39218;SDS011;24934;52.752;6.964;2022-09-12T04:11:10;13.63;;;12.50;;
39218;SDS011;24934;52.752;6.964;2022-09-12T04:13:38;13.18;;;12.15;;
39218;SDS011;24934;52.752;6.964;2022-09-12T04:16:05;13.43;;;12.43;;
39218;SDS011;24934;52.752;6.964;2022-09-12T04:18:31;12.95;;;11.95;;
39218;SDS011;24934;52.752;6.964;2022-09-12T04:20:58;13.60;;;12.50;;
39218;SDS011;24934;52.752;6.964;2022-09-12T04:23:27;12.33;;;11.23;;
39218;SDS011;24934;52.752;6.964;2022-09-12T04:25:57;13.97;;;12.80;;
39218;SDS011;24934;52.752;6.964;2022-09-12T04:28:26;13.40;;;12.23;;
39218;SDS011;24934;52.752;6.964;2022-09-12T04:30:53;14.00;;;12.80;;
39218;SDS011;24934;52.752;6.964;2022-09-12T04:33:19;14.00;;;12.93;;
39218;SDS011;24934;52.752;6.964;2022-09-12T04:35:45;13.68;;;12.57;;
39218;SDS011;24934;52.752;6.964;2022-09-12T04:38:11;13.88;;;12.82;;
39218;SDS011;24934;52.752;6.964;2022-09-12T04:40:37;13.43;;;12.32;;
39218;SDS011;24934;52.752;6.964;2022-09-12T04:43:03;15.98;;;14.48;;
39218;SDS011;24934;52.752;6.964;2022-09-12T04:45:29;14.35;;;13.15;;
39218;SDS011;24934;52.752;6.964;2022-09-12T04:47:55;11.95;;;10.98;;
39218;SDS011;24934;52.752;6.964;2022-09-12T04:50:21;14.10;;;12.85;;
39218;SDS011;24934;52.752;6.964;2022-09-12T04:52:50;12.07;;;11.23;;
39218;SDS011;24934;52.752;6.964;2022-09-12T04:55:16;14.52;;;13.13;;
39218;SDS011;24934;52.752;6.964;2022-09-12T04:57:42;14.07;;;13.00;;
39218;SDS011;24934;52.752;6.964;2022-09-12T05:00:08;13.82;;;12.73;;
39218;SDS011;24934;52.752;6.964;2022-09-12T05:02:38;14.95;;;13.77;;
39218;SDS011;24934;52.752;6.964;2022-09-12T05:05:07;15.20;;;14.00;;
39218;SDS011;24934;52.752;6.964;2022-09-12T05:07:34;14.48;;;13.35;;
39218;SDS011;24934;52.752;6.964;2022-09-12T05:10:00;15.68;;;14.32;;
39218;SDS011;24934;52.752;6.964;2022-09-12T05:12:28;13.82;;;12.85;;
39218;SDS011;24934;52.752;6.964;2022-09-12T05:14:54;16.05;;;14.68;;
39218;SDS011;24934;52.752;6.964;2022-09-12T05:17:19;18.27;;;14.53;;
39218;SDS011;24934;52.752;6.964;2022-09-12T05:19:46;17.70;;;16.20;;
39218;SDS011;24934;52.752;6.964;2022-09-12T05:22:12;16.93;;;15.43;;
39218;SDS011;24934;52.752;6.964;2022-09-12T05:24:38;30.05;;;16.80;;
39218;SDS011;24934;52.752;6.964;2022-09-12T05:27:07;16.30;;;14.80;;
39218;SDS011;24934;52.752;6.964;2022-09-12T05:29:32;16.40;;;14.95;;
39218;SDS011;24934;52.752;6.964;2022-09-12T05:31:58;29.90;;;15.32;;
39218;SDS011;24934;52.752;6.964;2022-09-12T05:34:24;16.25;;;14.88;;
39218;SDS011;24934;52.752;6.964;2022-09-12T05:36:51;17.17;;;15.70;;
39218;SDS011;24934;52.752;6.964;2022-09-12T05:39:17;15.93;;;14.68;;
39218;SDS011;24934;52.752;6.964;2022-09-12T05:41:42;17.02;;;15.38;;
39218;SDS011;24934;52.752;6.964;2022-09-12T05:44:11;15.85;;;14.57;;
39218;SDS011;24934;52.752;6.964;2022-09-12T05:46:39;16.52;;;14.95;;
39218;SDS011;24934;52.752;6.964;2022-09-12T05:49:07;16.55;;;15.13;;
39218;SDS011;24934;52.752;6.964;2022-09-12T05:51:36;18.00;;;16.25;;
39218;SDS011;24934;52.752;6.964;2022-09-12T05:54:04;16.35;;;15.05;;
39218;SDS011;24934;52.752;6.964;2022-09-12T05:56:32;15.27;;;13.90;;
39218;SDS011;24934;52.752;6.964;2022-09-12T05:59:02;16.50;;;15.00;;
39218;SDS011;24934;52.752;6.964;2022-09-12T06:01:30;16.60;;;15.05;;
39218;SDS011;24934;52.752;6.964;2022-09-12T06:03:57;15.73;;;14.10;;
39218;SDS011;24934;52.752;6.964;2022-09-12T06:06:25;15.52;;;13.70;;
39218;SDS011;24934;52.752;6.964;2022-09-12T06:08:52;16.60;;;14.85;;
39218;SDS011;24934;52.752;6.964;2022-09-12T06:11:21;17.88;;;15.05;;
39218;SDS011;24934;52.752;6.964;2022-09-12T06:13:50;14.88;;;13.52;;
39218;SDS011;24934;52.752;6.964;2022-09-12T06:16:26;14.18;;;12.98;;
39218;SDS011;24934;52.752;6.964;2022-09-12T06:18:54;13.90;;;12.70;;
39218;SDS011;24934;52.752;6.964;2022-09-12T06:21:24;15.00;;;13.80;;
39218;SDS011;24934;52.752;6.964;2022-09-12T06:23:52;17.25;;;14.38;;
39218;SDS011;24934;52.752;6.964;2022-09-12T06:26:18;15.75;;;14.20;;
39218;SDS011;24934;52.752;6.964;2022-09-12T06:28:47;15.80;;;14.13;;
39218;SDS011;24934;52.752;6.964;2022-09-12T06:31:14;15.05;;;13.85;;
39218;SDS011;24934;52.752;6.964;2022-09-12T06:33:44;16.65;;;14.95;;
39218;SDS011;24934;52.752;6.964;2022-09-12T06:36:12;15.43;;;13.98;;
39218;SDS011;24934;52.752;6.964;2022-09-12T06:38:43;15.13;;;13.85;;
39218;SDS011;24934;52.752;6.964;2022-09-12T06:41:15;16.92;;;13.52;;
39218;SDS011;24934;52.752;6.964;2022-09-12T06:43:41;16.52;;;14.85;;
39218;SDS011;24934;52.752;6.964;2022-09-12T06:46:07;16.50;;;15.05;;
39218;SDS011;24934;52.752;6.964;2022-09-12T06:48:33;15.40;;;14.10;;
39218;SDS011;24934;52.752;6.964;2022-09-12T06:51:00;15.00;;;13.70;;
39218;SDS011;24934;52.752;6.964;2022-09-12T06:53:37;14.95;;;13.68;;
39218;SDS011;24934;52.752;6.964;2022-09-12T06:58:35;15.10;;;13.93;;
39218;SDS011;24934;52.752;6.964;2022-09-12T07:01:05;14.48;;;13.18;;
39218;SDS011;24934;52.752;6.964;2022-09-12T07:03:33;15.32;;;13.95;;
39218;SDS011;24934;52.752;6.964;2022-09-12T07:06:34;15.35;;;13.65;;
39218;SDS011;24934;52.752;6.964;2022-09-12T07:08:59;14.57;;;13.15;;
39218;SDS011;24934;52.752;6.964;2022-09-12T07:11:30;14.20;;;13.02;;
39218;SDS011;24934;52.752;6.964;2022-09-12T07:13:58;13.00;;;11.90;;
39218;SDS011;24934;52.752;6.964;2022-09-12T07:16:25;14.85;;;13.65;;
39218;SDS011;24934;52.752;6.964;2022-09-12T07:18:56;14.35;;;13.15;;
39218;SDS011;24934;52.752;6.964;2022-09-12T07:21:23;13.93;;;12.85;;
39218;SDS011;24934;52.752;6.964;2022-09-12T07:23:48;13.52;;;12.43;;
39218;SDS011;24934;52.752;6.964;2022-09-12T07:26:16;13.73;;;12.63;;
39218;SDS011;24934;52.752;6.964;2022-09-12T07:28:52;13.70;;;12.45;;
39218;SDS011;24934;52.752;6.964;2022-09-12T07:31:23;12.77;;;11.80;;
39218;SDS011;24934;52.752;6.964;2022-09-12T07:33:49;13.50;;;12.40;;
39218;SDS011;24934;52.752;6.964;2022-09-12T07:36:16;13.15;;;12.15;;
39218;SDS011;24934;52.752;6.964;2022-09-12T07:38:43;13.32;;;12.13;;
39218;SDS011;24934;52.752;6.964;2022-09-12T07:41:16;12.27;;;11.38;;
39218;SDS011;24934;52.752;6.964;2022-09-12T07:43:44;13.38;;;12.27;;
39218;SDS011;24934;52.752;6.964;2022-09-12T07:46:11;13.43;;;12.32;;
39218;SDS011;24934;52.752;6.964;2022-09-12T07:48:37;12.93;;;11.93;;
39218;SDS011;24934;52.752;6.964;2022-09-12T07:51:07;13.60;;;12.40;;
39218;SDS011;24934;52.752;6.964;2022-09-12T07:53:35;13.90;;;12.70;;
39218;SDS011;24934;52.752;6.964;2022-09-12T07:56:05;12.98;;;12.00;;
39218;SDS011;24934;52.752;6.964;2022-09-12T07:58:32;13.43;;;12.32;;
39218;SDS011;24934;52.752;6.964;2022-09-12T08:01:03;15.73;;;14.13;;
39218;SDS011;24934;52.752;6.964;2022-09-12T08:03:33;12.10;;;11.10;;
39218;SDS011;24934;52.752;6.964;2022-09-12T08:08:31;12.55;;;11.60;;
39218;SDS011;24934;52.752;6.964;2022-09-12T08:10:57;12.40;;;11.52;;
39218;SDS011;24934;52.752;6.964;2022-09-12T08:13:24;12.57;;;11.48;;
39218;SDS011;24934;52.752;6.964;2022-09-12T08:15:51;12.60;;;11.65;;
39218;SDS011;24934;52.752;6.964;2022-09-12T08:18:20;12.45;;;11.55;;
39218;SDS011;24934;52.752;6.964;2022-09-12T08:20:46;12.55;;;11.63;;
39218;SDS011;24934;52.752;6.964;2022-09-12T08:23:12;12.27;;;11.38;;
39218;SDS011;24934;52.752;6.964;2022-09-12T08:25:37;12.95;;;12.00;;
39218;SDS011;24934;52.752;6.964;2022-09-12T08:28:03;13.40;;;12.32;;
39218;SDS011;24934;52.752;6.964;2022-09-12T08:30:28;10.98;;;10.27;;
39218;SDS011;24934;52.752;6.964;2022-09-12T08:32:54;11.73;;;10.82;;
39218;SDS011;24934;52.752;6.964;2022-09-12T08:35:19;13.00;;;11.77;;
39218;SDS011;24934;52.752;6.964;2022-09-12T08:37:45;11.90;;;11.00;;
39218;SDS011;24934;52.752;6.964;2022-09-12T08:40:14;11.70;;;10.70;;
39218;SDS011;24934;52.752;6.964;2022-09-12T08:42:49;12.20;;;11.30;;
39218;SDS011;24934;52.752;6.964;2022-09-12T08:45:30;12.63;;;11.73;;
39218;SDS011;24934;52.752;6.964;2022-09-12T08:48:09;14.65;;;13.32;;
39218;SDS011;24934;52.752;6.964;2022-09-12T08:50:36;12.70;;;11.70;;
39218;SDS011;24934;52.752;6.964;2022-09-12T08:53:10;12.77;;;11.88;;
39218;SDS011;24934;52.752;6.964;2022-09-12T08:55:41;12.52;;;11.63;;
39218;SDS011;24934;52.752;6.964;2022-09-12T08:58:13;11.98;;;10.98;;
39218;SDS011;24934;52.752;6.964;2022-09-12T09:03:31;12.35;;;11.27;;
39218;SDS011;24934;52.752;6.964;2022-09-12T09:06:15;11.82;;;11.02;;
39218;SDS011;24934;52.752;6.964;2022-09-12T09:09:04;11.95;;;10.95;;
39218;SDS011;24934;52.752;6.964;2022-09-12T09:11:44;10.80;;;10.00;;
39218;SDS011;24934;52.752;6.964;2022-09-12T09:20:22;11.43;;;10.52;;
39218;SDS011;24934;52.752;6.964;2022-09-12T09:25:27;12.63;;;11.63;;
39218;SDS011;24934;52.752;6.964;2022-09-12T09:28:06;12.75;;;11.75;;
39218;SDS011;24934;52.752;6.964;2022-09-12T09:30:59;14.18;;;13.10;;
39218;SDS011;24934;52.752;6.964;2022-09-12T09:33:27;12.93;;;11.82;;
39218;SDS011;24934;52.752;6.964;2022-09-12T09:36:04;11.75;;;10.85;;
39218;SDS011;24934;52.752;6.964;2022-09-12T09:38:49;12.50;;;11.60;;
39218;SDS011;24934;52.752;6.964;2022-09-12T09:43:54;14.38;;;12.77;;
39218;SDS011;24934;52.752;6.964;2022-09-12T09:46:21;13.55;;;12.27;;
39218;SDS011;24934;52.752;6.964;2022-09-12T09:48:47;13.77;;;12.50;;
39218;SDS011;24934;52.752;6.964;2022-09-12T09:51:15;13.85;;;12.70;;
39218;SDS011;24934;52.752;6.964;2022-09-12T09:56:40;13.50;;;12.18;;
39218;SDS011;24934;52.752;6.964;2022-09-12T10:01:42;13.27;;;12.18;;
39218;SDS011;24934;52.752;6.964;2022-09-12T10:04:16;14.70;;;13.50;;
39218;SDS011;24934;52.752;6.964;2022-09-12T10:06:46;13.68;;;12.55;;
39218;SDS011;24934;52.752;6.964;2022-09-12T10:09:22;13.13;;;12.02;;
39218;SDS011;24934;52.752;6.964;2022-09-12T10:11:53;14.45;;;12.93;;
39218;SDS011;24934;52.752;6.964;2022-09-12T10:16:59;13.02;;;11.98;;
39218;SDS011;24934;52.752;6.964;2022-09-12T10:19:33;14.35;;;13.20;;
39218;SDS011;24934;52.752;6.964;2022-09-12T10:22:04;13.75;;;12.68;;
39218;SDS011;24934;52.752;6.964;2022-09-12T10:24:38;15.88;;;14.48;;
39218;SDS011;24934;52.752;6.964;2022-09-12T10:27:08;12.88;;;11.80;;
39218;SDS011;24934;52.752;6.964;2022-09-12T10:32:10;13.85;;;12.35;;
39218;SDS011;24934;52.752;6.964;2022-09-12T10:34:40;12.73;;;11.43;;
39218;SDS011;24934;52.752;6.964;2022-09-12T10:37:08;14.25;;;13.05;;
39218;SDS011;24934;52.752;6.964;2022-09-12T10:39:47;12.68;;;11.57;;
39218;SDS011;24934;52.752;6.964;2022-09-12T10:42:40;14.00;;;12.98;;
39218;SDS011;24934;52.752;6.964;2022-09-12T10:47:51;16.15;;;11.95;;
39218;SDS011;24934;52.752;6.964;2022-09-12T10:50:22;12.27;;;11.20;;
39218;SDS011;24934;52.752;6.964;2022-09-12T10:52:54;12.90;;;11.60;;
39218;SDS011;24934;52.752;6.964;2022-09-12T10:55:36;11.65;;;10.55;;
39218;SDS011;24934;52.752;6.964;2022-09-12T10:58:05;11.52;;;10.55;;
39218;SDS011;24934;52.752;6.964;2022-09-12T11:06:24;11.13;;;10.23;;
39218;SDS011;24934;52.752;6.964;2022-09-12T11:09:05;11.32;;;10.43;;
39218;SDS011;24934;52.752;6.964;2022-09-12T11:11:50;10.48;;;9.63;;
39218;SDS011;24934;52.752;6.964;2022-09-12T11:14:33;11.18;;;10.23;;
39218;SDS011;24934;52.752;6.964;2022-09-12T11:17:23;11.82;;;10.82;;
39218;SDS011;24934;52.752;6.964;2022-09-12T11:25:17;10.82;;;9.70;;
39218;SDS011;24934;52.752;6.964;2022-09-12T11:33:45;10.68;;;9.88;;
39218;SDS011;24934;52.752;6.964;2022-09-12T11:36:52;10.85;;;9.98;;
39218;SDS011;24934;52.752;6.964;2022-09-12T11:39:31;11.35;;;10.30;;
39218;SDS011;24934;52.752;6.964;2022-09-12T11:42:05;11.43;;;10.32;;
39218;SDS011;24934;52.752;6.964;2022-09-12T11:44:44;11.35;;;10.35;;
39218;SDS011;24934;52.752;6.964;2022-09-12T11:47:15;12.10;;;10.98;;
39218;SDS011;24934;52.752;6.964;2022-09-12T11:49:44;10.55;;;9.85;;
39218;SDS011;24934;52.752;6.964;2022-09-12T11:52:21;10.45;;;9.68;;
39218;SDS011;24934;52.752;6.964;2022-09-12T11:55:01;11.63;;;10.73;;
39218;SDS011;24934;52.752;6.964;2022-09-12T12:00:17;11.00;;;10.15;;
39218;SDS011;24934;52.752;6.964;2022-09-12T12:07:58;10.20;;;9.43;;
39218;SDS011;24934;52.752;6.964;2022-09-12T12:16:27;9.70;;;8.95;;
39218;SDS011;24934;52.752;6.964;2022-09-12T12:19:22;13.90;;;9.23;;
39218;SDS011;24934;52.752;6.964;2022-09-12T12:22:02;10.93;;;10.13;;
39218;SDS011;24934;52.752;6.964;2022-09-12T12:33:50;10.57;;;9.85;;
39218;SDS011;24934;52.752;6.964;2022-09-12T12:35:42;10.05;;;9.35;;
39218;SDS011;24934;52.752;6.964;2022-09-12T12:46:17;10.00;;;9.30;;
39218;SDS011;24934;52.752;6.964;2022-09-12T12:48:59;9.13;;;8.52;;
39218;SDS011;24934;52.752;6.964;2022-09-12T12:51:48;10.32;;;9.43;;
39218;SDS011;24934;52.752;6.964;2022-09-12T12:59:51;9.55;;;8.95;;
39218;SDS011;24934;52.752;6.964;2022-09-12T13:04:58;10.23;;;9.52;;
39218;SDS011;24934;52.752;6.964;2022-09-12T13:07:29;9.55;;;8.95;;
39218;SDS011;24934;52.752;6.964;2022-09-12T13:09:58;9.50;;;8.90;;
39218;SDS011;24934;52.752;6.964;2022-09-12T13:12:26;10.30;;;9.60;;
39218;SDS011;24934;52.752;6.964;2022-09-12T13:14:58;9.20;;;8.60;;
39218;SDS011;24934;52.752;6.964;2022-09-12T13:20:01;9.02;;;8.52;;
39218;SDS011;24934;52.752;6.964;2022-09-12T13:22:41;8.13;;;7.63;;
39218;SDS011;24934;52.752;6.964;2022-09-12T13:25:19;8.18;;;7.68;;
39218;SDS011;24934;52.752;6.964;2022-09-12T13:44:23;8.15;;;7.65;;
39218;SDS011;24934;52.752;6.964;2022-09-12T13:46:51;8.50;;;7.88;;
39218;SDS011;24934;52.752;6.964;2022-09-12T13:49:21;8.70;;;8.00;;
39218;SDS011;24934;52.752;6.964;2022-09-12T13:52:02;7.70;;;7.22;;
39218;SDS011;24934;52.752;6.964;2022-09-12T13:54:30;8.82;;;8.32;;
39218;SDS011;24934;52.752;6.964;2022-09-12T13:56:58;8.85;;;8.25;;
39218;SDS011;24934;52.752;6.964;2022-09-12T13:59:24;8.27;;;7.68;;
39218;SDS011;24934;52.752;6.964;2022-09-12T14:01:49;7.80;;;7.30;;
39218;SDS011;24934;52.752;6.964;2022-09-12T14:04:22;7.70;;;7.20;;
39218;SDS011;24934;52.752;6.964;2022-09-12T14:07:15;8.20;;;7.70;;
39218;SDS011;24934;52.752;6.964;2022-09-12T14:09:45;7.28;;;6.88;;
39218;SDS011;24934;52.752;6.964;2022-09-12T14:12:26;7.85;;;7.32;;
39218;SDS011;24934;52.752;6.964;2022-09-12T14:14:55;7.95;;;7.45;;
39218;SDS011;24934;52.752;6.964;2022-09-12T14:19:57;8.13;;;7.63;;
39218;SDS011;24934;52.752;6.964;2022-09-12T14:22:26;8.07;;;7.57;;
39218;SDS011;24934;52.752;6.964;2022-09-12T14:24:53;8.02;;;7.53;;
39218;SDS011;24934;52.752;6.964;2022-09-12T14:27:24;8.80;;;8.20;;
39218;SDS011;24934;52.752;6.964;2022-09-12T14:30:02;8.38;;;7.68;;
39218;SDS011;24934;52.752;6.964;2022-09-12T14:32:34;8.05;;;7.55;;
39218;SDS011;24934;52.752;6.964;2022-09-12T14:37:47;7.63;;;7.13;;
39218;SDS011;24934;52.752;6.964;2022-09-12T14:40:18;9.40;;;8.43;;
39218;SDS011;24934;52.752;6.964;2022-09-12T14:42:46;8.25;;;7.75;;
39218;SDS011;24934;52.752;6.964;2022-09-12T14:45:29;10.00;;;9.10;;
39218;SDS011;24934;52.752;6.964;2022-09-12T14:47:56;8.00;;;7.50;;
39218;SDS011;24934;52.752;6.964;2022-09-12T14:50:26;7.75;;;7.25;;
39218;SDS011;24934;52.752;6.964;2022-09-12T14:53:05;8.15;;;7.65;;
39218;SDS011;24934;52.752;6.964;2022-09-12T14:55:46;6.88;;;6.47;;
39218;SDS011;24934;52.752;6.964;2022-09-12T14:58:22;7.22;;;6.72;;
39218;SDS011;24934;52.752;6.964;2022-09-12T15:00:51;6.43;;;6.03;;
39218;SDS011;24934;52.752;6.964;2022-09-12T15:03:29;6.68;;;6.28;;
39218;SDS011;24934;52.752;6.964;2022-09-12T15:06:22;7.15;;;6.75;;
39218;SDS011;24934;52.752;6.964;2022-09-12T15:08:51;6.97;;;6.57;;
39218;SDS011;24934;52.752;6.964;2022-09-12T15:11:18;6.70;;;6.30;;
39218;SDS011;24934;52.752;6.964;2022-09-12T15:13:44;7.32;;;6.93;;
39218;SDS011;24934;52.752;6.964;2022-09-12T15:16:10;7.13;;;6.72;;
39218;SDS011;24934;52.752;6.964;2022-09-12T15:18:36;7.13;;;6.72;;
39218;SDS011;24934;52.752;6.964;2022-09-12T15:21:04;8.13;;;7.40;;
39218;SDS011;24934;52.752;6.964;2022-09-12T15:23:33;5.72;;;5.43;;
39218;SDS011;24934;52.752;6.964;2022-09-12T15:26:08;5.72;;;5.43;;
39218;SDS011;24934;52.752;6.964;2022-09-12T15:28:46;5.50;;;5.20;;
39218;SDS011;24934;52.752;6.964;2022-09-12T15:34:07;5.90;;;5.60;;
39218;SDS011;24934;52.752;6.964;2022-09-12T15:36:32;6.63;;;6.22;;
39218;SDS011;24934;52.752;6.964;2022-09-12T15:38:58;5.82;;;5.53;;
39218;SDS011;24934;52.752;6.964;2022-09-12T15:41:25;7.32;;;6.15;;
39218;SDS011;24934;52.752;6.964;2022-09-12T15:43:55;5.32;;;5.03;;
39218;SDS011;24934;52.752;6.964;2022-09-12T15:46:24;6.20;;;5.80;;
39218;SDS011;24934;52.752;6.964;2022-09-12T15:48:49;6.78;;;6.38;;
39218;SDS011;24934;52.752;6.964;2022-09-12T15:51:16;6.80;;;6.40;;
39218;SDS011;24934;52.752;6.964;2022-09-12T15:53:47;5.60;;;5.30;;
39218;SDS011;24934;52.752;6.964;2022-09-12T15:56:14;7.07;;;6.68;;
39218;SDS011;24934;52.752;6.964;2022-09-12T15:58:41;6.22;;;5.82;;
39218;SDS011;24934;52.752;6.964;2022-09-12T16:01:09;6.13;;;5.82;;
39218;SDS011;24934;52.752;6.964;2022-09-12T16:03:36;7.05;;;6.55;;
39218;SDS011;24934;52.752;6.964;2022-09-12T16:06:05;6.32;;;5.93;;
39218;SDS011;24934;52.752;6.964;2022-09-12T16:08:32;6.43;;;6.03;;
39218;SDS011;24934;52.752;6.964;2022-09-12T16:11:00;6.82;;;6.43;;
39218;SDS011;24934;52.752;6.964;2022-09-12T16:13:29;7.35;;;6.78;;
39218;SDS011;24934;52.752;6.964;2022-09-12T16:15:55;6.40;;;6.00;;
39218;SDS011;24934;52.752;6.964;2022-09-12T16:18:22;6.35;;;5.95;;
39218;SDS011;24934;52.752;6.964;2022-09-12T16:20:52;7.43;;;6.93;;
39218;SDS011;24934;52.752;6.964;2022-09-12T16:23:18;7.68;;;7.22;;
39218;SDS011;24934;52.752;6.964;2022-09-12T16:25:43;8.15;;;7.55;;
39218;SDS011;24934;52.752;6.964;2022-09-12T16:28:09;7.15;;;6.75;;
39218;SDS011;24934;52.752;6.964;2022-09-12T16:30:35;7.25;;;6.85;;
39218;SDS011;24934;52.752;6.964;2022-09-12T16:33:01;6.90;;;6.50;;
39218;SDS011;24934;52.752;6.964;2022-09-12T16:35:26;6.90;;;6.50;;
39218;SDS011;24934;52.752;6.964;2022-09-12T16:37:52;7.55;;;7.00;;
39218;SDS011;24934;52.752;6.964;2022-09-12T16:40:18;7.53;;;7.07;;
39218;SDS011;24934;52.752;6.964;2022-09-12T16:42:46;7.47;;;7.05;;
39218;SDS011;24934;52.752;6.964;2022-09-12T16:45:12;7.38;;;6.97;;
39218;SDS011;24934;52.752;6.964;2022-09-12T16:47:37;7.57;;;7.18;;
39218;SDS011;24934;52.752;6.964;2022-09-12T16:50:03;7.93;;;7.40;;
39218;SDS011;24934;52.752;6.964;2022-09-12T16:52:30;7.70;;;7.20;;
39218;SDS011;24934;52.752;6.964;2022-09-12T16:54:58;8.10;;;7.57;;
39218;SDS011;24934;52.752;6.964;2022-09-12T16:57:23;8.23;;;7.72;;
39218;SDS011;24934;52.752;6.964;2022-09-12T16:59:49;8.10;;;7.50;;
39218;SDS011;24934;52.752;6.964;2022-09-12T17:02:17;7.53;;;7.10;;
39218;SDS011;24934;52.752;6.964;2022-09-12T17:04:43;7.60;;;7.20;;
39218;SDS011;24934;52.752;6.964;2022-09-12T17:07:09;8.43;;;7.82;;
39218;SDS011;24934;52.752;6.964;2022-09-12T17:09:34;8.05;;;7.55;;
39218;SDS011;24934;52.752;6.964;2022-09-12T17:12:00;8.57;;;8.02;;
39218;SDS011;24934;52.752;6.964;2022-09-12T17:14:26;7.68;;;7.18;;
39218;SDS011;24934;52.752;6.964;2022-09-12T17:16:52;8.20;;;7.70;;
39218;SDS011;24934;52.752;6.964;2022-09-12T17:19:22;7.43;;;7.03;;
39218;SDS011;24934;52.752;6.964;2022-09-12T17:21:55;8.38;;;7.78;;
39218;SDS011;24934;52.752;6.964;2022-09-12T17:24:21;15.60;;;6.95;;
39218;SDS011;24934;52.752;6.964;2022-09-12T17:26:47;7.63;;;7.13;;
39218;SDS011;24934;52.752;6.964;2022-09-12T17:29:14;8.15;;;7.65;;
39218;SDS011;24934;52.752;6.964;2022-09-12T17:31:41;8.05;;;7.40;;
39218;SDS011;24934;52.752;6.964;2022-09-12T17:34:07;8.10;;;7.60;;
39218;SDS011;24934;52.752;6.964;2022-09-12T17:36:33;8.40;;;7.90;;
39218;SDS011;24934;52.752;6.964;2022-09-12T17:39:00;7.97;;;7.47;;
39218;SDS011;24934;52.752;6.964;2022-09-12T17:41:28;8.27;;;7.78;;